This is the latest recevied weather packets stored in our database for station/object XQ6AK-15. If no packets are shown the sender has not sent any weather packets the latest 10 day(s).
| Time | Temp. | Humidity | Pressure | Rain* | Wind** | Luminosity | Snow |
|---|---|---|---|---|---|---|---|
| 1778333808 | 3.33° C | 99% | 1026.8 hPa | 0 mm | - | 159 W/m² | - |
| 1778333506 | 2.78° C | 99% | 1026.7 hPa | 0 mm | - | 156 W/m² | - |
| 1778333204 | 1.67° C | 99% | 1026.9 hPa | 0 mm | - | 121 W/m² | - |
| 1778332902 | 1.67° C | 99% | 1026.8 hPa | 0 mm | - | 104 W/m² | - |
| 1778332598 | 1.67° C | 99% | 1026.8 hPa | 0 mm | - | 87 W/m² | - |
| 1778332295 | 1.11° C | 99% | 1026.8 hPa | 0 mm | - | 75 W/m² | - |
| 1778331991 | 0° C | 99% | 1026.9 hPa | 0 mm | - | 67 W/m² | - |
| 1778331687 | 0° C | 99% | 1026.9 hPa | 0 mm | - | 56 W/m² | - |
| 1778331384 | 0° C | 99% | 1027.1 hPa | 0 mm | - | 51 W/m² | - |
| 1778331080 | 0° C | 99% | 1027.1 hPa | 0 mm | - | 48 W/m² | - |
| 1778330777 | 0° C | 99% | 1027.2 hPa | 0 mm | - | 42 W/m² | - |
| 1778330474 | 0° C | 99% | 1027 hPa | 0 mm | - | 39 W/m² | - |
| 1778330172 | -0.56° C | 99% | 1027.1 hPa | 0 mm | - | 30 W/m² | - |
| 1778329868 | -0.56° C | 99% | 1027.1 hPa | 0 mm | - | 26 W/m² | - |
| 1778329564 | -0.56° C | 99% | 1027 hPa | 0 mm | - | 25 W/m² | - |
| 1778329262 | -0.56° C | 99% | 1027 hPa | 0 mm | - | 19 W/m² | - |
| 1778328958 | -0.56° C | 99% | 1026.8 hPa | 0 mm | - | 16 W/m² | - |
| 1778328656 | -0.56° C | 99% | 1026.8 hPa | 0 mm | - | 13 W/m² | - |
| 1778328354 | -0.56° C | 99% | 1026.8 hPa | 0 mm | - | 9 W/m² | - |
| 1778328052 | -1.11° C | 99% | 1026.7 hPa | 0 mm | - | 7 W/m² | - |
| 1778327748 | -1.11° C | 99% | 1027 hPa | 0 mm | - | 4 W/m² | - |
| 1778327446 | -0.56° C | 99% | 1027 hPa | 0 mm | - | 3 W/m² | - |
| 1778327144 | -0.56° C | 99% | 1026.8 hPa | 0 mm | - | 0 W/m² | - |
| 1778326843 | -0.56° C | 99% | 1026.7 hPa | 0 mm | - | 0 W/m² | - |
| 1778326541 | -0.56° C | 99% | 1026.7 hPa | 0 mm | - | 0 W/m² | - |
* Rain latest hour (hover to see other rain measurements)
** Current wind speed in m/s (hover to see current wind gust speed)